FBMN

Maun Airport

Maun, Botswana
METAR FBMN 241400Z 08004KT CAVOK 25/06 Q1020
Observed Flight Rules
Jun-24 @ 14:00 UTC (an hour ago) Visual Flight Rules
Wind Visibility Clouds
80° at 4 knots 10,000+ meters
  • Clear skies
Temperatures Readings
Current 25°C / 77°F
Dewpoint 6°C / 43°F
Humidity 30%
Altimeter 30.12" Hg
Pressure 1020 hPa
Elevation 900
METAR FBMN 241400Z 08004KT CAVOK 25/06 Q1020
Observed Flight Rules
Jun-24 @ 14:00 UTC
(an hour ago)
VFR
Wind Visibility
80° at 4 knots 10,000+ meters
Clouds
  • Clear skies
Temperature Dewpoint
25°C / 77°F 6°C / 43°F
Humidity Altimeter Pressure
30% 30.12" Hg 1020 hPa